sensor_id;sensor_type;location;lat;lon;timestamp;temperature;humidity
42097;DHT22;27754;45.414;11.084;2022-09-13T00:01:33;20.00;77.10
42097;DHT22;27754;45.414;11.084;2022-09-13T00:04:00;20.00;77.40
42097;DHT22;27754;45.414;11.084;2022-09-13T00:06:27;20.00;77.30
42097;DHT22;27754;45.414;11.084;2022-09-13T00:08:54;19.90;77.50
42097;DHT22;27754;45.414;11.084;2022-09-13T00:11:26;19.80;77.70
42097;DHT22;27754;45.414;11.084;2022-09-13T00:13:54;19.80;77.70
42097;DHT22;27754;45.414;11.084;2022-09-13T00:16:24;19.80;77.40
42097;DHT22;27754;45.414;11.084;2022-09-13T00:18:53;19.80;77.30
42097;DHT22;27754;45.414;11.084;2022-09-13T00:21:21;19.70;77.20
42097;DHT22;27754;45.414;11.084;2022-09-13T00:23:50;19.80;76.70
42097;DHT22;27754;45.414;11.084;2022-09-13T00:26:24;19.70;76.70
42097;DHT22;27754;45.414;11.084;2022-09-13T00:28:52;19.80;76.30
42097;DHT22;27754;45.414;11.084;2022-09-13T00:31:21;19.80;76.50
42097;DHT22;27754;45.414;11.084;2022-09-13T00:33:50;19.70;76.80
42097;DHT22;27754;45.414;11.084;2022-09-13T00:36:17;19.70;76.90
42097;DHT22;27754;45.414;11.084;2022-09-13T00:38:44;19.70;76.40
42097;DHT22;27754;45.414;11.084;2022-09-13T00:41:17;19.70;76.30
42097;DHT22;27754;45.414;11.084;2022-09-13T00:43:56;19.60;76.30
42097;DHT22;27754;45.414;11.084;2022-09-13T00:46:44;19.60;76.20
42097;DHT22;27754;45.414;11.084;2022-09-13T00:49:32;19.50;76.40
42097;DHT22;27754;45.414;11.084;2022-09-13T00:52:09;19.40;76.80
42097;DHT22;27754;45.414;11.084;2022-09-13T00:54:42;19.40;76.80
42097;DHT22;27754;45.414;11.084;2022-09-13T00:57:11;19.40;76.80
42097;DHT22;27754;45.414;11.084;2022-09-13T00:59:40;19.40;76.90
42097;DHT22;27754;45.414;11.084;2022-09-13T01:02:08;19.50;76.70
42097;DHT22;27754;45.414;11.084;2022-09-13T01:04:35;19.50;76.40
42097;DHT22;27754;45.414;11.084;2022-09-13T01:07:11;19.40;76.60
42097;DHT22;27754;45.414;11.084;2022-09-13T01:09:41;19.50;76.50
42097;DHT22;27754;45.414;11.084;2022-09-13T01:15:15;19.50;75.40
42097;DHT22;27754;45.414;11.084;2022-09-13T01:17:42;19.50;75.40
42097;DHT22;27754;45.414;11.084;2022-09-13T01:20:10;19.50;75.50
42097;DHT22;27754;45.414;11.084;2022-09-13T01:36:44;19.20;75.90
42097;DHT22;27754;45.414;11.084;2022-09-13T01:39:28;19.20;75.70
42097;DHT22;27754;45.414;11.084;2022-09-13T01:50:39;19.40;74.40
42097;DHT22;27754;45.414;11.084;2022-09-13T01:53:35;19.50;74.00
42097;DHT22;27754;45.414;11.084;2022-09-13T01:56:39;19.40;74.50
42097;DHT22;27754;45.414;11.084;2022-09-13T01:59:05;19.30;74.80
42097;DHT22;27754;45.414;11.084;2022-09-13T02:01:36;19.40;73.80
42097;DHT22;27754;45.414;11.084;2022-09-13T02:04:18;19.40;73.80
42097;DHT22;27754;45.414;11.084;2022-09-13T02:07:16;19.30;73.70
42097;DHT22;27754;45.414;11.084;2022-09-13T02:09:48;19.30;74.00
42097;DHT22;27754;45.414;11.084;2022-09-13T02:12:20;19.30;73.90
42097;DHT22;27754;45.414;11.084;2022-09-13T02:14:56;19.30;74.10
42097;DHT22;27754;45.414;11.084;2022-09-13T02:17:28;19.30;74.20
42097;DHT22;27754;45.414;11.084;2022-09-13T02:19:59;19.30;74.50
42097;DHT22;27754;45.414;11.084;2022-09-13T02:22:32;19.20;75.00
42097;DHT22;27754;45.414;11.084;2022-09-13T02:25:13;19.20;75.20
42097;DHT22;27754;45.414;11.084;2022-09-13T02:27:45;19.10;75.20
42097;DHT22;27754;45.414;11.084;2022-09-13T02:30:15;19.10;75.60
42097;DHT22;27754;45.414;11.084;2022-09-13T02:32:51;19.10;75.50
42097;DHT22;27754;45.414;11.084;2022-09-13T02:35:33;19.00;75.60
42097;DHT22;27754;45.414;11.084;2022-09-13T02:38:08;19.00;75.10
42097;DHT22;27754;45.414;11.084;2022-09-13T02:40:38;18.90;74.70
42097;DHT22;27754;45.414;11.084;2022-09-13T02:43:21;18.90;74.80
42097;DHT22;27754;45.414;11.084;2022-09-13T02:57:32;19.10;74.10
42097;DHT22;27754;45.414;11.084;2022-09-13T03:00:03;19.10;74.40
42097;DHT22;27754;45.414;11.084;2022-09-13T03:02:32;19.10;73.10
42097;DHT22;27754;45.414;11.084;2022-09-13T03:05:00;19.20;73.30
42097;DHT22;27754;45.414;11.084;2022-09-13T03:07:27;19.10;73.80
42097;DHT22;27754;45.414;11.084;2022-09-13T03:10:01;19.00;74.20
42097;DHT22;27754;45.414;11.084;2022-09-13T03:15:12;19.00;74.60
42097;DHT22;27754;45.414;11.084;2022-09-13T03:20:24;19.00;74.40
42097;DHT22;27754;45.414;11.084;2022-09-13T03:23:09;19.00;74.50
42097;DHT22;27754;45.414;11.084;2022-09-13T03:25:51;19.00;74.60
42097;DHT22;27754;45.414;11.084;2022-09-13T03:28:38;19.00;74.70
42097;DHT22;27754;45.414;11.084;2022-09-13T03:31:32;19.00;74.60
42097;DHT22;27754;45.414;11.084;2022-09-13T03:34:24;19.00;74.70
42097;DHT22;27754;45.414;11.084;2022-09-13T03:40:07;19.00;74.80
42097;DHT22;27754;45.414;11.084;2022-09-13T03:42:47;19.00;75.20
42097;DHT22;27754;45.414;11.084;2022-09-13T03:45:19;19.00;76.40
42097;DHT22;27754;45.414;11.084;2022-09-13T03:47:49;19.00;77.00
42097;DHT22;27754;45.414;11.084;2022-09-13T03:50:20;18.90;77.70
42097;DHT22;27754;45.414;11.084;2022-09-13T03:52:51;18.90;78.30
42097;DHT22;27754;45.414;11.084;2022-09-13T03:55:20;18.80;78.80
42097;DHT22;27754;45.414;11.084;2022-09-13T03:57:47;18.80;79.10
42097;DHT22;27754;45.414;11.084;2022-09-13T04:00:15;18.80;79.50
42097;DHT22;27754;45.414;11.084;2022-09-13T04:02:43;18.70;79.60
42097;DHT22;27754;45.414;11.084;2022-09-13T04:05:10;18.70;79.80
42097;DHT22;27754;45.414;11.084;2022-09-13T04:07:37;18.60;80.50
42097;DHT22;27754;45.414;11.084;2022-09-13T04:10:05;18.60;80.20
42097;DHT22;27754;45.414;11.084;2022-09-13T04:12:36;18.60;80.10
42097;DHT22;27754;45.414;11.084;2022-09-13T04:15:04;18.60;80.10
42097;DHT22;27754;45.414;11.084;2022-09-13T04:17:31;18.60;80.30
42097;DHT22;27754;45.414;11.084;2022-09-13T04:19:57;18.60;80.20
42097;DHT22;27754;45.414;11.084;2022-09-13T04:22:24;18.60;80.10
42097;DHT22;27754;45.414;11.084;2022-09-13T04:24:51;18.50;80.30
42097;DHT22;27754;45.414;11.084;2022-09-13T04:27:18;18.40;80.50
42097;DHT22;27754;45.414;11.084;2022-09-13T04:29:45;18.40;80.80
42097;DHT22;27754;45.414;11.084;2022-09-13T04:32:13;18.40;81.10
42097;DHT22;27754;45.414;11.084;2022-09-13T04:34:40;18.40;81.20
42097;DHT22;27754;45.414;11.084;2022-09-13T04:37:07;18.40;81.10
42097;DHT22;27754;45.414;11.084;2022-09-13T04:39:34;18.40;81.00
42097;DHT22;27754;45.414;11.084;2022-09-13T04:42:01;18.40;80.80
42097;DHT22;27754;45.414;11.084;2022-09-13T04:44:29;18.40;80.60
42097;DHT22;27754;45.414;11.084;2022-09-13T04:46:57;18.30;81.40
42097;DHT22;27754;45.414;11.084;2022-09-13T04:49:27;18.30;81.50
42097;DHT22;27754;45.414;11.084;2022-09-13T04:51:53;18.30;81.30
42097;DHT22;27754;45.414;11.084;2022-09-13T04:54:21;18.30;81.20
42097;DHT22;27754;45.414;11.084;2022-09-13T04:56:48;18.30;81.30
42097;DHT22;27754;45.414;11.084;2022-09-13T04:59:15;18.40;81.30
42097;DHT22;27754;45.414;11.084;2022-09-13T05:01:42;18.40;81.40
42097;DHT22;27754;45.414;11.084;2022-09-13T05:04:09;18.30;81.50
42097;DHT22;27754;45.414;11.084;2022-09-13T05:06:37;18.40;81.80
42097;DHT22;27754;45.414;11.084;2022-09-13T05:09:04;18.40;81.70
42097;DHT22;27754;45.414;11.084;2022-09-13T05:11:31;18.30;81.50
42097;DHT22;27754;45.414;11.084;2022-09-13T05:13:59;18.30;81.90
42097;DHT22;27754;45.414;11.084;2022-09-13T05:16:29;18.30;82.20
42097;DHT22;27754;45.414;11.084;2022-09-13T05:18:56;18.30;82.10
42097;DHT22;27754;45.414;11.084;2022-09-13T05:21:24;18.40;82.10
42097;DHT22;27754;45.414;11.084;2022-09-13T05:23:51;18.50;81.80
42097;DHT22;27754;45.414;11.084;2022-09-13T05:26:21;18.60;81.40
42097;DHT22;27754;45.414;11.084;2022-09-13T05:28:48;18.70;81.30
42097;DHT22;27754;45.414;11.084;2022-09-13T05:31:23;18.80;81.00
42097;DHT22;27754;45.414;11.084;2022-09-13T05:33:55;18.80;80.60
42097;DHT22;27754;45.414;11.084;2022-09-13T05:36:22;18.90;79.80
42097;DHT22;27754;45.414;11.084;2022-09-13T05:38:51;18.90;78.80
42097;DHT22;27754;45.414;11.084;2022-09-13T05:41:38;19.00;79.30
42097;DHT22;27754;45.414;11.084;2022-09-13T05:44:05;19.10;79.00
42097;DHT22;27754;45.414;11.084;2022-09-13T05:46:39;19.20;78.90
42097;DHT22;27754;45.414;11.084;2022-09-13T05:49:06;19.40;78.00
42097;DHT22;27754;45.414;11.084;2022-09-13T05:51:33;19.40;78.00
42097;DHT22;27754;45.414;11.084;2022-09-13T05:54:00;19.40;77.60
42097;DHT22;27754;45.414;11.084;2022-09-13T05:56:28;19.30;76.00
42097;DHT22;27754;45.414;11.084;2022-09-13T05:58:55;19.40;76.20
42097;DHT22;27754;45.414;11.084;2022-09-13T06:01:27;19.60;75.60
42097;DHT22;27754;45.414;11.084;2022-09-13T06:03:57;19.70;74.90
42097;DHT22;27754;45.414;11.084;2022-09-13T06:06:25;19.90;74.30
42097;DHT22;27754;45.414;11.084;2022-09-13T06:08:55;20.10;72.80
42097;DHT22;27754;45.414;11.084;2022-09-13T06:11:24;20.30;71.00
42097;DHT22;27754;45.414;11.084;2022-09-13T06:13:52;20.60;70.00
42097;DHT22;27754;45.414;11.084;2022-09-13T06:16:19;20.90;69.90
42097;DHT22;27754;45.414;11.084;2022-09-13T06:18:47;21.10;68.70
42097;DHT22;27754;45.414;11.084;2022-09-13T06:21:17;21.30;68.70
42097;DHT22;27754;45.414;11.084;2022-09-13T06:23:48;21.50;68.10
42097;DHT22;27754;45.414;11.084;2022-09-13T06:26:18;21.70;67.60
42097;DHT22;27754;45.414;11.084;2022-09-13T06:28:47;21.90;68.40
42097;DHT22;27754;45.414;11.084;2022-09-13T06:31:16;22.00;69.20
42097;DHT22;27754;45.414;11.084;2022-09-13T06:33:44;22.00;69.30
42097;DHT22;27754;45.414;11.084;2022-09-13T06:36:14;22.20;70.10
42097;DHT22;27754;45.414;11.084;2022-09-13T06:38:45;22.40;70.40
42097;DHT22;27754;45.414;11.084;2022-09-13T06:41:19;22.40;71.30
42097;DHT22;27754;45.414;11.084;2022-09-13T06:43:55;22.50;70.60
42097;DHT22;27754;45.414;11.084;2022-09-13T06:46:24;22.80;70.10
42097;DHT22;27754;45.414;11.084;2022-09-13T06:48:52;22.80;70.10
42097;DHT22;27754;45.414;11.084;2022-09-13T06:51:21;22.90;68.80
42097;DHT22;27754;45.414;11.084;2022-09-13T06:53:50;23.10;69.30
42097;DHT22;27754;45.414;11.084;2022-09-13T06:56:28;23.20;68.10
42097;DHT22;27754;45.414;11.084;2022-09-13T06:58:57;23.30;67.50
42097;DHT22;27754;45.414;11.084;2022-09-13T07:01:26;23.40;68.40
42097;DHT22;27754;45.414;11.084;2022-09-13T07:03:57;23.50;67.60
42097;DHT22;27754;45.414;11.084;2022-09-13T07:06:27;23.70;67.10
42097;DHT22;27754;45.414;11.084;2022-09-13T07:08:56;23.80;65.20
42097;DHT22;27754;45.414;11.084;2022-09-13T07:11:25;23.80;64.20
42097;DHT22;27754;45.414;11.084;2022-09-13T07:13:55;23.90;63.80
42097;DHT22;27754;45.414;11.084;2022-09-13T07:16:30;24.10;63.70
42097;DHT22;27754;45.414;11.084;2022-09-13T07:19:00;24.20;64.80
42097;DHT22;27754;45.414;11.084;2022-09-13T07:21:28;24.30;64.10
42097;DHT22;27754;45.414;11.084;2022-09-13T07:23:56;24.40;63.60
42097;DHT22;27754;45.414;11.084;2022-09-13T07:26:24;24.60;63.40
42097;DHT22;27754;45.414;11.084;2022-09-13T07:28:55;24.70;62.50
42097;DHT22;27754;45.414;11.084;2022-09-13T07:31:27;24.60;63.30
42097;DHT22;27754;45.414;11.084;2022-09-13T07:34:00;24.90;62.40
42097;DHT22;27754;45.414;11.084;2022-09-13T07:36:28;25.00;61.90
42097;DHT22;27754;45.414;11.084;2022-09-13T07:38:56;25.20;61.70
42097;DHT22;27754;45.414;11.084;2022-09-13T07:41:25;25.30;61.80
42097;DHT22;27754;45.414;11.084;2022-09-13T07:43:52;25.00;61.70
42097;DHT22;27754;45.414;11.084;2022-09-13T07:46:29;25.30;62.10
42097;DHT22;27754;45.414;11.084;2022-09-13T07:49:00;25.30;62.40
42097;DHT22;27754;45.414;11.084;2022-09-13T07:51:32;25.00;63.80
42097;DHT22;27754;45.414;11.084;2022-09-13T07:54:02;25.20;64.00
42097;DHT22;27754;45.414;11.084;2022-09-13T07:56:31;25.30;63.90
42097;DHT22;27754;45.414;11.084;2022-09-13T07:59:00;25.30;64.60
42097;DHT22;27754;45.414;11.084;2022-09-13T08:01:31;25.30;64.90
42097;DHT22;27754;45.414;11.084;2022-09-13T08:04:05;25.50;63.70
42097;DHT22;27754;45.414;11.084;2022-09-13T08:06:34;25.30;63.10
42097;DHT22;27754;45.414;11.084;2022-09-13T08:09:01;25.20;64.20
42097;DHT22;27754;45.414;11.084;2022-09-13T08:11:37;25.30;65.80
42097;DHT22;27754;45.414;11.084;2022-09-13T08:14:06;25.30;64.70
42097;DHT22;27754;45.414;11.084;2022-09-13T08:16:33;25.30;64.80
42097;DHT22;27754;45.414;11.084;2022-09-13T08:19:02;25.30;65.60
42097;DHT22;27754;45.414;11.084;2022-09-13T08:21:35;25.10;63.90
42097;DHT22;27754;45.414;11.084;2022-09-13T08:24:04;25.20;64.70
42097;DHT22;27754;45.414;11.084;2022-09-13T08:26:32;25.40;64.70
42097;DHT22;27754;45.414;11.084;2022-09-13T08:29:03;25.50;64.50
42097;DHT22;27754;45.414;11.084;2022-09-13T08:31:31;25.50;64.60
42097;DHT22;27754;45.414;11.084;2022-09-13T08:33:58;25.60;65.00
42097;DHT22;27754;45.414;11.084;2022-09-13T08:36:27;25.80;64.10
42097;DHT22;27754;45.414;11.084;2022-09-13T08:38:56;25.90;64.30
42097;DHT22;27754;45.414;11.084;2022-09-13T08:44:31;25.70;64.00
42097;DHT22;27754;45.414;11.084;2022-09-13T08:49:50;25.60;65.50
42097;DHT22;27754;45.414;11.084;2022-09-13T08:52:48;25.70;65.40
42097;DHT22;27754;45.414;11.084;2022-09-13T08:55:27;25.60;65.20
42097;DHT22;27754;45.414;11.084;2022-09-13T09:00:37;25.60;65.60
42097;DHT22;27754;45.414;11.084;2022-09-13T09:03:15;25.40;65.50
42097;DHT22;27754;45.414;11.084;2022-09-13T09:05:48;25.60;66.80
42097;DHT22;27754;45.414;11.084;2022-09-13T09:10:56;25.40;66.90
42097;DHT22;27754;45.414;11.084;2022-09-13T09:13:34;25.60;68.20
42097;DHT22;27754;45.414;11.084;2022-09-13T09:16:24;25.70;66.00
42097;DHT22;27754;45.414;11.084;2022-09-13T09:18:54;25.50;65.50
42097;DHT22;27754;45.414;11.084;2022-09-13T09:21:25;25.60;66.30
42097;DHT22;27754;45.414;11.084;2022-09-13T09:23:54;25.80;66.50
42097;DHT22;27754;45.414;11.084;2022-09-13T09:26:26;25.80;66.00
42097;DHT22;27754;45.414;11.084;2022-09-13T09:28:57;25.90;65.70
42097;DHT22;27754;45.414;11.084;2022-09-13T09:34:12;25.90;66.20
42097;DHT22;27754;45.414;11.084;2022-09-13T09:39:29;25.80;65.30
42097;DHT22;27754;45.414;11.084;2022-09-13T09:41:59;25.90;65.10
42097;DHT22;27754;45.414;11.084;2022-09-13T09:44:28;25.90;64.00
42097;DHT22;27754;45.414;11.084;2022-09-13T09:47:19;25.80;65.20
42097;DHT22;27754;45.414;11.084;2022-09-13T09:52:55;25.80;66.70
42097;DHT22;27754;45.414;11.084;2022-09-13T09:55:42;25.80;65.00
42097;DHT22;27754;45.414;11.084;2022-09-13T09:58:12;25.50;65.30
42097;DHT22;27754;45.414;11.084;2022-09-13T10:00:55;25.60;65.30
42097;DHT22;27754;45.414;11.084;2022-09-13T10:03:28;25.80;66.00
42097;DHT22;27754;45.414;11.084;2022-09-13T10:06:10;25.80;64.60
42097;DHT22;27754;45.414;11.084;2022-09-13T10:08:40;25.90;66.10
42097;DHT22;27754;45.414;11.084;2022-09-13T10:11:08;25.90;64.30
42097;DHT22;27754;45.414;11.084;2022-09-13T10:13:36;25.80;65.60
42097;DHT22;27754;45.414;11.084;2022-09-13T10:16:06;25.80;65.30
42097;DHT22;27754;45.414;11.084;2022-09-13T10:18:47;25.90;66.20
42097;DHT22;27754;45.414;11.084;2022-09-13T10:23:48;26.20;65.40
42097;DHT22;27754;45.414;11.084;2022-09-13T10:26:23;26.30;64.00
42097;DHT22;27754;45.414;11.084;2022-09-13T10:31:19;26.00;64.00
42097;DHT22;27754;45.414;11.084;2022-09-13T10:36:31;26.20;64.00
42097;DHT22;27754;45.414;11.084;2022-09-13T10:39:18;26.30;62.90
42097;DHT22;27754;45.414;11.084;2022-09-13T10:42:01;26.30;63.30
42097;DHT22;27754;45.414;11.084;2022-09-13T10:49:57;26.00;64.00
42097;DHT22;27754;45.414;11.084;2022-09-13T10:52:30;26.30;63.20
42097;DHT22;27754;45.414;11.084;2022-09-13T10:55:22;26.30;63.00
42097;DHT22;27754;45.414;11.084;2022-09-13T10:57:55;26.30;63.90
42097;DHT22;27754;45.414;11.084;2022-09-13T11:00:49;26.40;63.90
42097;DHT22;27754;45.414;11.084;2022-09-13T11:03:29;26.60;63.70
42097;DHT22;27754;45.414;11.084;2022-09-13T11:09:11;26.60;62.60
42097;DHT22;27754;45.414;11.084;2022-09-13T11:12:04;26.50;62.10
42097;DHT22;27754;45.414;11.084;2022-09-13T11:14:58;26.60;62.00
42097;DHT22;27754;45.414;11.084;2022-09-13T11:17:59;26.60;61.60
42097;DHT22;27754;45.414;11.084;2022-09-13T11:31:37;26.70;60.60
42097;DHT22;27754;45.414;11.084;2022-09-13T11:34:41;26.70;59.90
42097;DHT22;27754;45.414;11.084;2022-09-13T11:48:41;27.10;59.60
42097;DHT22;27754;45.414;11.084;2022-09-13T11:57:46;26.80;61.80
42097;DHT22;27754;45.414;11.084;2022-09-13T12:00:06;26.90;60.20
42097;DHT22;27754;45.414;11.084;2022-09-13T12:02:40;26.80;61.90
42097;DHT22;27754;45.414;11.084;2022-09-13T12:05:13;27.00;61.70
42097;DHT22;27754;45.414;11.084;2022-09-13T12:07:56;27.00;60.70
42097;DHT22;27754;45.414;11.084;2022-09-13T12:10:44;27.00;59.80
42097;DHT22;27754;45.414;11.084;2022-09-13T12:13:31;27.00;61.00
42097;DHT22;27754;45.414;11.084;2022-09-13T12:16:05;27.10;60.60
42097;DHT22;27754;45.414;11.084;2022-09-13T12:19:47;27.30;60.50
42097;DHT22;27754;45.414;11.084;2022-09-13T12:22:00;27.30;58.30
42097;DHT22;27754;45.414;11.084;2022-09-13T12:24:53;27.30;59.00
42097;DHT22;27754;45.414;11.084;2022-09-13T12:27:38;27.20;58.40
42097;DHT22;27754;45.414;11.084;2022-09-13T12:30:15;27.10;58.50
42097;DHT22;27754;45.414;11.084;2022-09-13T12:32:44;27.00;59.20
42097;DHT22;27754;45.414;11.084;2022-09-13T12:55:13;27.50;58.70
42097;DHT22;27754;45.414;11.084;2022-09-13T13:01:14;27.80;59.10
42097;DHT22;27754;45.414;11.084;2022-09-13T13:06:55;27.80;57.50
42097;DHT22;27754;45.414;11.084;2022-09-13T13:14:59;27.70;57.20
42097;DHT22;27754;45.414;11.084;2022-09-13T13:17:48;27.70;56.90
42097;DHT22;27754;45.414;11.084;2022-09-13T13:34:01;27.80;56.60
42097;DHT22;27754;45.414;11.084;2022-09-13T13:39:00;28.20;55.90
42097;DHT22;27754;45.414;11.084;2022-09-13T13:41:39;28.40;56.10
42097;DHT22;27754;45.414;11.084;2022-09-13T13:46:46;28.30;55.90
42097;DHT22;27754;45.414;11.084;2022-09-13T13:49:43;28.00;56.10
42097;DHT22;27754;45.414;11.084;2022-09-13T13:55:00;28.00;56.40
42097;DHT22;27754;45.414;11.084;2022-09-13T13:57:37;27.90;56.50
42097;DHT22;27754;45.414;11.084;2022-09-13T14:11:24;28.30;55.40
42097;DHT22;27754;45.414;11.084;2022-09-13T14:19:30;28.20;55.70
42097;DHT22;27754;45.414;11.084;2022-09-13T14:22:20;28.10;56.40
42097;DHT22;27754;45.414;11.084;2022-09-13T14:24:52;28.00;55.30
42097;DHT22;27754;45.414;11.084;2022-09-13T14:27:28;28.00;55.00
42097;DHT22;27754;45.414;11.084;2022-09-13T14:30:13;28.10;54.50
42097;DHT22;27754;45.414;11.084;2022-09-13T14:32:44;28.20;54.50
42097;DHT22;27754;45.414;11.084;2022-09-13T14:35:37;28.00;54.70
42097;DHT22;27754;45.414;11.084;2022-09-13T14:38:22;27.90;55.40
42097;DHT22;27754;45.414;11.084;2022-09-13T14:40:50;28.20;55.30
42097;DHT22;27754;45.414;11.084;2022-09-13T14:43:23;28.30;55.10
42097;DHT22;27754;45.414;11.084;2022-09-13T14:46:19;28.50;54.70
42097;DHT22;27754;45.414;11.084;2022-09-13T14:48:57;28.60;55.20
42097;DHT22;27754;45.414;11.084;2022-09-13T14:51:50;28.70;54.90
42097;DHT22;27754;45.414;11.084;2022-09-13T14:54:42;28.80;54.50
42097;DHT22;27754;45.414;11.084;2022-09-13T14:57:21;28.70;54.90
42097;DHT22;27754;45.414;11.084;2022-09-13T14:59:53;28.60;55.20
42097;DHT22;27754;45.414;11.084;2022-09-13T15:02:28;28.70;55.60
42097;DHT22;27754;45.414;11.084;2022-09-13T15:04:58;28.80;54.70
42097;DHT22;27754;45.414;11.084;2022-09-13T15:07:32;28.60;55.10
42097;DHT22;27754;45.414;11.084;2022-09-13T15:18:25;28.60;54.40
42097;DHT22;27754;45.414;11.084;2022-09-13T15:21:14;28.60;54.40
42097;DHT22;27754;45.414;11.084;2022-09-13T15:23:49;28.60;55.00
42097;DHT22;27754;45.414;11.084;2022-09-13T15:26:24;28.60;54.10
42097;DHT22;27754;45.414;11.084;2022-09-13T15:28:59;28.70;54.70
42097;DHT22;27754;45.414;11.084;2022-09-13T15:31:31;28.30;55.00
42097;DHT22;27754;45.414;11.084;2022-09-13T15:39:42;28.40;55.30
42097;DHT22;27754;45.414;11.084;2022-09-13T15:42:09;28.30;56.30
42097;DHT22;27754;45.414;11.084;2022-09-13T15:44:35;28.20;55.70
42097;DHT22;27754;45.414;11.084;2022-09-13T15:47:10;28.10;56.20
42097;DHT22;27754;45.414;11.084;2022-09-13T15:49:46;28.10;56.30
42097;DHT22;27754;45.414;11.084;2022-09-13T15:52:15;28.10;55.90
42097;DHT22;27754;45.414;11.084;2022-09-13T15:54:46;28.00;55.50
42097;DHT22;27754;45.414;11.084;2022-09-13T15:59:49;27.80;56.10
42097;DHT22;27754;45.414;11.084;2022-09-13T16:02:37;27.70;56.50
42097;DHT22;27754;45.414;11.084;2022-09-13T16:05:04;27.70;56.90
42097;DHT22;27754;45.414;11.084;2022-09-13T16:07:32;27.50;56.90
42097;DHT22;27754;45.414;11.084;2022-09-13T16:09:59;27.40;57.10
42097;DHT22;27754;45.414;11.084;2022-09-13T16:12:27;27.30;57.00
42097;DHT22;27754;45.414;11.084;2022-09-13T16:14:54;27.30;57.10
42097;DHT22;27754;45.414;11.084;2022-09-13T16:17:23;27.20;57.40
42097;DHT22;27754;45.414;11.084;2022-09-13T16:19:52;27.20;57.80
42097;DHT22;27754;45.414;11.084;2022-09-13T16:22:19;27.10;58.00
42097;DHT22;27754;45.414;11.084;2022-09-13T16:24:46;27.00;58.30
42097;DHT22;27754;45.414;11.084;2022-09-13T16:27:15;26.90;59.20
42097;DHT22;27754;45.414;11.084;2022-09-13T16:29:42;26.80;59.20
42097;DHT22;27754;45.414;11.084;2022-09-13T16:32:09;26.80;59.60
42097;DHT22;27754;45.414;11.084;2022-09-13T16:34:36;26.80;59.90
42097;DHT22;27754;45.414;11.084;2022-09-13T16:37:03;26.80;59.70
42097;DHT22;27754;45.414;11.084;2022-09-13T16:39:30;26.70;60.00
42097;DHT22;27754;45.414;11.084;2022-09-13T16:41:57;26.70;59.50
42097;DHT22;27754;45.414;11.084;2022-09-13T16:44:24;26.70;59.60
42097;DHT22;27754;45.414;11.084;2022-09-13T16:46:51;26.60;59.90
42097;DHT22;27754;45.414;11.084;2022-09-13T16:49:18;26.60;60.10
42097;DHT22;27754;45.414;11.084;2022-09-13T16:51:45;26.60;60.20
42097;DHT22;27754;45.414;11.084;2022-09-13T16:54:12;26.50;60.10
42097;DHT22;27754;45.414;11.084;2022-09-13T16:56:39;26.40;60.50
42097;DHT22;27754;45.414;11.084;2022-09-13T16:59:07;26.40;60.70
42097;DHT22;27754;45.414;11.084;2022-09-13T17:01:34;26.30;60.90
42097;DHT22;27754;45.414;11.084;2022-09-13T17:04:01;26.30;61.20
42097;DHT22;27754;45.414;11.084;2022-09-13T17:06:29;26.30;61.40
42097;DHT22;27754;45.414;11.084;2022-09-13T17:09:00;26.20;61.60
42097;DHT22;27754;45.414;11.084;2022-09-13T17:11:31;26.10;61.70
42097;DHT22;27754;45.414;11.084;2022-09-13T17:13:59;26.10;61.80
42097;DHT22;27754;45.414;11.084;2022-09-13T17:16:34;26.00;62.10
42097;DHT22;27754;45.414;11.084;2022-09-13T17:19:05;26.00;62.20
42097;DHT22;27754;45.414;11.084;2022-09-13T17:21:33;25.90;62.50
42097;DHT22;27754;45.414;11.084;2022-09-13T17:24:00;25.90;62.10
42097;DHT22;27754;45.414;11.084;2022-09-13T17:26:28;25.90;62.30
42097;DHT22;27754;45.414;11.084;2022-09-13T17:28:55;25.80;63.10
42097;DHT22;27754;45.414;11.084;2022-09-13T17:31:22;25.80;64.20
42097;DHT22;27754;45.414;11.084;2022-09-13T17:33:50;25.70;64.30
42097;DHT22;27754;45.414;11.084;2022-09-13T17:36:19;25.70;64.90
42097;DHT22;27754;45.414;11.084;2022-09-13T17:38:46;25.60;65.10
42097;DHT22;27754;45.414;11.084;2022-09-13T17:41:15;25.50;65.30
42097;DHT22;27754;45.414;11.084;2022-09-13T17:43:44;25.40;65.30
42097;DHT22;27754;45.414;11.084;2022-09-13T17:46:19;25.40;65.80
42097;DHT22;27754;45.414;11.084;2022-09-13T17:48:52;25.30;65.70
42097;DHT22;27754;45.414;11.084;2022-09-13T17:51:25;25.30;65.70
42097;DHT22;27754;45.414;11.084;2022-09-13T17:54:03;25.30;65.80
42097;DHT22;27754;45.414;11.084;2022-09-13T17:56:35;25.20;66.10
42097;DHT22;27754;45.414;11.084;2022-09-13T17:59:19;25.10;66.70
42097;DHT22;27754;45.414;11.084;2022-09-13T18:01:48;25.00;67.50
42097;DHT22;27754;45.414;11.084;2022-09-13T18:04:18;25.00;68.40
42097;DHT22;27754;45.414;11.084;2022-09-13T18:06:45;24.90;69.10
42097;DHT22;27754;45.414;11.084;2022-09-13T18:09:13;24.80;70.00
42097;DHT22;27754;45.414;11.084;2022-09-13T18:11:41;24.70;70.90
42097;DHT22;27754;45.414;11.084;2022-09-13T18:14:13;24.60;71.60
42097;DHT22;27754;45.414;11.084;2022-09-13T18:16:41;24.40;72.00
42097;DHT22;27754;45.414;11.084;2022-09-13T18:19:09;24.40;71.90
42097;DHT22;27754;45.414;11.084;2022-09-13T18:21:36;24.20;72.50
42097;DHT22;27754;45.414;11.084;2022-09-13T18:24:03;24.10;72.40
42097;DHT22;27754;45.414;11.084;2022-09-13T18:26:30;24.00;72.70
42097;DHT22;27754;45.414;11.084;2022-09-13T18:29:03;23.90;72.90
42097;DHT22;27754;45.414;11.084;2022-09-13T18:31:32;23.90;72.60
42097;DHT22;27754;45.414;11.084;2022-09-13T18:34:05;23.90;72.60
42097;DHT22;27754;45.414;11.084;2022-09-13T18:36:33;23.90;72.00
42097;DHT22;27754;45.414;11.084;2022-09-13T18:39:01;23.90;72.20
42097;DHT22;27754;45.414;11.084;2022-09-13T18:41:35;23.90;72.40
42097;DHT22;27754;45.414;11.084;2022-09-13T18:44:02;23.90;72.90
42097;DHT22;27754;45.414;11.084;2022-09-13T18:46:31;23.90;72.70
42097;DHT22;27754;45.414;11.084;2022-09-13T18:49:00;23.90;72.50
42097;DHT22;27754;45.414;11.084;2022-09-13T18:51:34;23.90;72.60
42097;DHT22;27754;45.414;11.084;2022-09-13T18:54:03;23.80;73.20
42097;DHT22;27754;45.414;11.084;2022-09-13T18:56:31;23.70;73.50
42097;DHT22;27754;45.414;11.084;2022-09-13T18:59:03;23.60;74.00
42097;DHT22;27754;45.414;11.084;2022-09-13T19:01:34;23.50;74.00
42097;DHT22;27754;45.414;11.084;2022-09-13T19:04:07;23.60;74.10
42097;DHT22;27754;45.414;11.084;2022-09-13T19:06:37;23.60;74.30